Search for airport 
image banner adimage banner ad
image banner ad

SVKV - Planta Lama

Located in Lago De Maracaibo, Venezuela

ICAO - SVKV, IATA -

Data provided by Airmate  

General information

Coordinates: N9°56'1" W71°38'36"
Elevation is 14 feet MSL.
 
View others Airports in Zulia

Operational data

Open for public use
Current time UTC:
Current local time:
Weather at : SVMC - Maracaibo / La Chinita Intl ( 70 km )
TAF: TAF SVMC 222200Z 2300/2400 18005KT 9999 SCT016 TX34/2319Z TN24/2307Z BECMG 2300/2304 09005KT 9999 SCT016
View NOTAMs / SUP AIP / TFR affecting this airport [VIEW]
Communications frequencies: [VIEW]

Runways:

Airport contact information

Address: Lago De Maracaibo Venezuela

Satellite view of SVKV